createdAt,value
2022-08-26T00:01:36.675Z,8.75
2022-08-26T00:04:07.496Z,7.82
2022-08-26T00:06:38.201Z,8.10
2022-08-26T00:09:13.237Z,8.40
2022-08-26T00:11:47.198Z,8.50
2022-08-26T00:14:18.478Z,8.68
2022-08-26T00:16:49.058Z,8.75
2022-08-26T00:19:21.591Z,9.50
2022-08-26T00:21:52.631Z,9.35
2022-08-26T00:24:23.719Z,8.80
2022-08-26T00:26:54.058Z,8.65
2022-08-26T00:29:24.654Z,8.45
2022-08-26T00:31:54.857Z,8.38
2022-08-26T00:34:25.362Z,9.07
2022-08-26T00:36:57.993Z,7.85
2022-08-26T00:39:28.928Z,8.68
2022-08-26T00:41:59.267Z,9.95
2022-08-26T00:44:29.803Z,9.80
2022-08-26T00:47:04.464Z,9.90
2022-08-26T00:49:44.275Z,9.93
2022-08-26T00:52:19.029Z,10.07
2022-08-26T00:55:01.912Z,10.40
2022-08-26T00:57:34.519Z,9.90
2022-08-26T01:00:12.133Z,9.50
2022-08-26T01:02:46.799Z,8.20
2022-08-26T01:05:20.327Z,8.48
2022-08-26T01:07:50.479Z,9.25
2022-08-26T01:10:28.701Z,10.18
2022-08-26T01:13:04.637Z,8.90
2022-08-26T01:15:45.112Z,8.77
2022-08-26T01:18:16.347Z,8.70
2022-08-26T01:21:15.607Z,8.23
2022-08-26T01:23:50.273Z,8.07
2022-08-26T01:26:25.862Z,8.27
2022-08-26T01:29:00.199Z,8.63
2022-08-26T01:31:36.574Z,8.20
2022-08-26T01:34:27.543Z,8.18
2022-08-26T01:37:14.679Z,8.10
2022-08-26T01:39:51.306Z,8.75
2022-08-26T01:42:25.968Z,8.38
2022-08-26T01:45:07.426Z,7.70
2022-08-26T01:47:39.158Z,8.60
2022-08-26T01:50:27.880Z,9.60
2022-08-26T01:53:05.153Z,8.70
2022-08-26T01:55:35.970Z,9.27
2022-08-26T01:58:09.806Z,8.57
2022-08-26T02:00:44.078Z,9.38
2022-08-26T02:03:22.655Z,8.88
2022-08-26T02:05:55.764Z,8.40
2022-08-26T02:08:33.806Z,8.07
2022-08-26T02:11:03.919Z,7.10
2022-08-26T02:13:40.702Z,7.97
2022-08-26T02:16:14.287Z,8.50
2022-08-26T02:18:46.962Z,8.68
2022-08-26T02:21:20.159Z,8.07
2022-08-26T02:23:53.607Z,8.25
2022-08-26T02:26:29.636Z,8.45
2022-08-26T02:29:12.895Z,7.90
2022-08-26T02:31:44.925Z,7.55
2022-08-26T02:34:17.988Z,7.95
2022-08-26T02:36:48.182Z,9.88
2022-08-26T02:39:22.063Z,9.40
2022-08-26T02:41:52.548Z,9.18
2022-08-26T02:44:23.493Z,8.30
2022-08-26T02:46:55.816Z,9.50
2022-08-26T02:49:27.716Z,7.95
2022-08-26T02:51:58.903Z,8.45
2022-08-26T02:54:32.583Z,8.00
2022-08-26T02:57:04.755Z,7.90
2022-08-26T02:59:37.543Z,9.50
2022-08-26T03:02:08.355Z,9.10
2022-08-26T03:04:40.404Z,8.85
2022-08-26T03:07:27.811Z,7.85
2022-08-26T03:09:58.786Z,8.32
2022-08-26T03:12:29.059Z,8.52
2022-08-26T03:15:00.291Z,8.70
2022-08-26T03:17:31.202Z,9.50
2022-08-26T03:20:07.651Z,8.93
2022-08-26T03:22:39.876Z,8.07
2022-08-26T03:25:13.291Z,8.55
2022-08-26T03:27:44.946Z,8.68
2022-08-26T03:30:45.120Z,8.85
2022-08-26T03:33:16.504Z,8.70
2022-08-26T03:35:50.918Z,8.68
2022-08-26T03:38:22.679Z,7.78
2022-08-26T03:40:53.651Z,8.27
2022-08-26T03:43:27.812Z,8.88
2022-08-26T03:45:58.170Z,9.10
2022-08-26T03:48:28.430Z,9.30
2022-08-26T03:51:00.961Z,8.77
2022-08-26T03:53:33.311Z,6.70
2022-08-26T03:56:07.724Z,7.30
2022-08-26T03:58:38.548Z,9.07
2022-08-26T04:01:09.182Z,9.48
2022-08-26T04:03:59.985Z,10.07
2022-08-26T04:06:35.804Z,9.50
2022-08-26T04:09:13.211Z,10.15
2022-08-26T04:11:46.909Z,9.75
2022-08-26T04:14:24.869Z,10.20
2022-08-26T04:16:57.692Z,11.00
2022-08-26T04:19:29.153Z,11.55
2022-08-26T04:21:59.889Z,12.00
2022-08-26T04:24:31.655Z,9.80
2022-08-26T04:27:04.522Z,10.15
2022-08-26T04:29:34.969Z,10.35
2022-08-26T04:32:08.555Z,9.88
2022-08-26T04:34:40.082Z,9.93
2022-08-26T04:37:11.840Z,10.27
2022-08-26T04:39:43.770Z,10.15
2022-08-26T04:42:14.642Z,10.35
2022-08-26T04:44:45.048Z,10.40
2022-08-26T04:47:15.043Z,10.00
2022-08-26T04:49:45.514Z,9.30
2022-08-26T04:54:46.558Z,8.15
2022-08-26T04:59:46.170Z,10.88
2022-08-26T05:02:20.459Z,10.40
2022-08-26T05:04:51.816Z,10.73
2022-08-26T05:07:22.343Z,11.63
2022-08-26T05:09:53.163Z,11.10
2022-08-26T05:12:24.914Z,10.93
2022-08-26T05:17:24.771Z,10.68
2022-08-26T05:19:55.349Z,10.27
2022-08-26T05:22:25.486Z,11.95
2022-08-26T05:24:56.377Z,11.13
2022-08-26T05:27:27.023Z,10.02
2022-08-26T05:32:30.146Z,11.93
2022-08-26T05:35:00.713Z,11.75
2022-08-26T05:37:31.214Z,11.93
2022-08-26T05:40:03.777Z,11.95
2022-08-26T05:42:34.607Z,11.55
2022-08-26T05:45:05.988Z,11.18
2022-08-26T05:47:37.347Z,11.63
2022-08-26T05:50:08.229Z,11.95
2022-08-26T05:52:38.908Z,10.48
2022-08-26T05:55:09.275Z,10.43
2022-08-26T05:57:42.773Z,12.27
2022-08-26T06:00:16.608Z,12.10
2022-08-26T06:02:48.462Z,12.27
2022-08-26T06:05:18.736Z,11.48
2022-08-26T06:08:07.703Z,11.98
2022-08-26T06:13:49.212Z,11.25
2022-08-26T06:18:53.177Z,12.73
2022-08-26T06:21:29.962Z,12.73
2022-08-26T06:24:27.244Z,12.60
2022-08-26T06:27:02.483Z,12.45
2022-08-26T06:29:36.120Z,12.57
2022-08-26T06:32:08.780Z,12.43
2022-08-26T06:34:39.477Z,12.50
2022-08-26T06:37:10.027Z,12.77
2022-08-26T06:39:41.299Z,13.68
2022-08-26T06:42:12.058Z,13.18
2022-08-26T06:44:44.700Z,12.23
2022-08-26T06:47:15.003Z,10.10
2022-08-26T06:49:45.608Z,10.65
2022-08-26T06:54:51.683Z,9.25
2022-08-26T06:57:23.150Z,9.70
2022-08-26T06:59:53.699Z,9.73
2022-08-26T07:02:28.591Z,12.15
2022-08-26T07:04:59.276Z,11.13
2022-08-26T07:10:01.864Z,11.77
2022-08-26T07:12:33.315Z,13.50
2022-08-26T07:15:04.523Z,11.80
2022-08-26T07:17:35.597Z,12.65
2022-08-26T07:20:10.023Z,12.27
2022-08-26T07:22:40.574Z,12.45
2022-08-26T07:25:13.062Z,11.98
2022-08-26T07:32:44.975Z,12.38
2022-08-26T07:35:15.464Z,13.25
2022-08-26T07:37:46.282Z,12.25
2022-08-26T07:40:18.402Z,12.25
2022-08-26T07:42:48.853Z,12.73
2022-08-26T07:45:19.298Z,11.75
2022-08-26T07:47:49.942Z,11.50
2022-08-26T07:50:20.549Z,13.32
2022-08-26T07:52:51.410Z,11.93
2022-08-26T07:55:24.092Z,12.85
2022-08-26T07:57:54.610Z,12.93
2022-08-26T08:00:25.986Z,11.60
2022-08-26T08:02:56.855Z,12.25
2022-08-26T08:05:28.495Z,13.48
2022-08-26T08:08:27.899Z,12.38
2022-08-26T08:10:58.924Z,11.23
2022-08-26T08:13:30.521Z,10.95
2022-08-26T08:16:03.944Z,11.52
2022-08-26T08:18:34.694Z,12.98
2022-08-26T08:21:21.449Z,12.38
2022-08-26T08:23:56.475Z,12.75
2022-08-26T08:26:27.729Z,13.07
2022-08-26T08:28:59.571Z,14.77
2022-08-26T08:31:55.895Z,15.25
2022-08-26T08:34:24.117Z,12.40
2022-08-26T08:36:56.367Z,12.25
2022-08-26T08:39:27.625Z,12.15
2022-08-26T08:42:05.362Z,9.52
2022-08-26T08:44:42.218Z,10.82
2022-08-26T08:47:26.657Z,9.38
2022-08-26T08:50:01.415Z,10.50
2022-08-26T08:52:36.393Z,11.07
2022-08-26T08:55:11.011Z,11.05
2022-08-26T08:58:08.131Z,12.13
2022-08-26T09:00:50.645Z,13.75
2022-08-26T09:03:40.122Z,14.15
2022-08-26T09:06:18.158Z,11.45
2022-08-26T09:08:50.727Z,12.68
2022-08-26T09:11:22.063Z,13.13
2022-08-26T09:13:55.106Z,16.20
2022-08-26T09:16:35.584Z,13.50
2022-08-26T09:19:27.322Z,15.13
2022-08-26T09:22:05.798Z,14.70
2022-08-26T09:24:48.505Z,13.45
2022-08-26T09:27:45.015Z,13.27
2022-08-26T09:30:30.548Z,12.50
2022-08-26T09:33:16.885Z,12.98
2022-08-26T09:35:49.607Z,12.55
2022-08-26T09:38:29.113Z,12.63
2022-08-26T09:41:02.574Z,11.75
2022-08-26T09:43:35.699Z,12.40
2022-08-26T09:46:24.638Z,12.30
2022-08-26T09:48:55.268Z,12.55
2022-08-26T09:51:33.068Z,13.85
2022-08-26T09:54:05.703Z,11.77
2022-08-26T09:56:40.189Z,12.90
2022-08-26T09:59:13.186Z,11.77
2022-08-26T10:01:45.268Z,11.88
2022-08-26T10:04:23.497Z,13.70
2022-08-26T10:07:03.331Z,14.45
2022-08-26T10:09:44.217Z,14.55
2022-08-26T10:12:21.780Z,13.57
2022-08-26T10:14:59.336Z,14.18
2022-08-26T10:17:44.715Z,13.15
2022-08-26T10:20:27.580Z,14.50
2022-08-26T10:23:03.003Z,13.25
2022-08-26T10:25:40.353Z,12.85
2022-08-26T10:28:29.079Z,13.27
2022-08-26T10:31:29.186Z,14.15
2022-08-26T10:34:00.491Z,13.60
2022-08-26T10:37:13.662Z,14.35
2022-08-26T10:40:06.534Z,13.25
2022-08-26T10:42:51.687Z,14.32
2022-08-26T10:45:26.456Z,15.48
2022-08-26T10:48:12.263Z,16.15
2022-08-26T10:50:47.519Z,16.48
2022-08-26T10:53:51.421Z,15.05
2022-08-26T10:56:50.981Z,15.93
2022-08-26T10:59:36.928Z,16.05
2022-08-26T11:02:33.897Z,16.38
2022-08-26T11:05:11.841Z,14.98
2022-08-26T11:07:47.349Z,15.35
2022-08-26T11:10:25.798Z,16.27
2022-08-26T11:13:04.926Z,16.38
2022-08-26T11:15:37.923Z,15.57
2022-08-26T11:18:13.267Z,15.35
2022-08-26T11:20:47.360Z,16.40
2022-08-26T11:23:28.980Z,16.88
2022-08-26T11:26:11.992Z,16.33
2022-08-26T11:28:51.560Z,16.45
2022-08-26T11:31:29.642Z,15.13
2022-08-26T11:34:04.033Z,16.42
2022-08-26T11:36:43.230Z,16.75
2022-08-26T11:39:54.472Z,16.65
2022-08-26T11:42:35.452Z,17.23
2022-08-26T11:45:15.500Z,17.70
2022-08-26T11:47:46.458Z,18.15
2022-08-26T11:50:21.851Z,16.65
2022-08-26T11:53:02.828Z,17.08
2022-08-26T11:55:35.404Z,18.38
2022-08-26T11:58:08.652Z,14.85
2022-08-26T12:01:09.823Z,15.60
2022-08-26T12:03:49.976Z,15.65
2022-08-26T12:06:52.054Z,15.73
2022-08-26T12:09:30.322Z,16.40
2022-08-26T12:12:12.603Z,15.90
2022-08-26T12:14:44.118Z,16.98
2022-08-26T12:17:18.207Z,16.88
2022-08-26T12:19:50.011Z,15.88
2022-08-26T12:22:27.058Z,16.85
2022-08-26T12:25:22.565Z,16.55
2022-08-26T12:27:54.066Z,17.13
2022-08-26T12:30:26.471Z,16.98
2022-08-26T12:33:22.349Z,17.45
2022-08-26T12:35:56.762Z,16.88
2022-08-26T12:38:28.666Z,16.67
2022-08-26T12:40:59.543Z,15.65
2022-08-26T12:43:59.284Z,16.38
2022-08-26T12:46:33.226Z,15.88
2022-08-26T12:49:04.469Z,16.60
2022-08-26T12:51:36.477Z,16.35
2022-08-26T12:54:07.927Z,15.13
2022-08-26T12:56:42.315Z,16.15
2022-08-26T12:59:28.284Z,15.18
2022-08-26T13:01:59.035Z,15.50
2022-08-26T13:04:42.358Z,16.30
2022-08-26T13:07:23.375Z,15.77
2022-08-26T13:09:56.304Z,15.68
2022-08-26T13:12:31.976Z,16.73
2022-08-26T13:15:03.770Z,16.85
2022-08-26T13:17:36.984Z,16.00
2022-08-26T13:20:07.839Z,15.43
2022-08-26T13:22:42.208Z,15.35
2022-08-26T13:25:13.008Z,14.95
2022-08-26T13:27:44.015Z,15.77
2022-08-26T13:30:14.750Z,15.70
2022-08-26T13:32:45.477Z,14.65
2022-08-26T13:35:15.714Z,14.82
2022-08-26T13:37:46.421Z,14.52
2022-08-26T13:40:16.701Z,15.55
2022-08-26T13:42:49.614Z,15.55
2022-08-26T13:45:20.274Z,15.38
2022-08-26T13:47:50.837Z,14.98
2022-08-26T13:50:21.071Z,16.67
2022-08-26T13:52:51.864Z,16.27
2022-08-26T13:55:22.067Z,14.95
2022-08-26T13:57:53.400Z,14.20
2022-08-26T14:00:24.269Z,14.13
2022-08-26T14:02:55.307Z,14.95
2022-08-26T14:05:25.634Z,15.07
2022-08-26T14:07:58.481Z,15.73
2022-08-26T14:10:29.539Z,15.48
2022-08-26T14:13:00.173Z,15.57
2022-08-26T14:15:31.174Z,15.50
2022-08-26T14:18:05.915Z,14.57
2022-08-26T14:20:39.936Z,15.50
2022-08-26T14:23:14.145Z,15.45
2022-08-26T14:25:44.755Z,14.50
2022-08-26T14:28:16.144Z,14.25
2022-08-26T14:30:52.554Z,12.93
2022-08-26T14:33:28.737Z,11.80
2022-08-26T14:36:18.692Z,10.82
2022-08-26T14:38:49.615Z,10.93
2022-08-26T14:41:21.542Z,11.05
2022-08-26T14:44:01.974Z,10.88
2022-08-26T14:46:35.693Z,10.75
2022-08-26T14:49:10.342Z,12.70
2022-08-26T14:51:42.120Z,11.48
2022-08-26T14:54:17.843Z,11.88
2022-08-26T14:56:53.603Z,11.90
2022-08-26T14:59:49.977Z,12.45
2022-08-26T15:02:27.761Z,12.75
2022-08-26T15:05:05.562Z,12.40
2022-08-26T15:07:36.087Z,11.82
2022-08-26T15:10:09.107Z,13.35
2022-08-26T15:12:40.186Z,11.60
2022-08-26T15:15:12.580Z,11.63
2022-08-26T15:17:43.129Z,12.13
2022-08-26T15:20:19.054Z,12.57
2022-08-26T15:22:49.747Z,13.50
2022-08-26T15:25:21.913Z,12.35
2022-08-26T15:27:52.235Z,12.23
2022-08-26T15:30:23.137Z,12.00
2022-08-26T15:32:53.441Z,11.55
2022-08-26T15:35:24.206Z,12.63
2022-08-26T15:37:54.492Z,12.95
2022-08-26T15:40:27.841Z,12.25
2022-08-26T15:43:17.748Z,11.43
2022-08-26T15:45:48.790Z,12.45
2022-08-26T15:48:19.006Z,12.15
2022-08-26T15:50:58.797Z,12.13
2022-08-26T15:53:32.394Z,13.45
2022-08-26T15:56:03.854Z,13.38
2022-08-26T15:58:34.170Z,12.50
2022-08-26T16:01:07.611Z,13.63
2022-08-26T16:03:38.042Z,12.88
2022-08-26T16:06:09.287Z,13.80
2022-08-26T16:08:40.001Z,13.20
2022-08-26T16:11:10.840Z,13.90
2022-08-26T16:13:41.134Z,13.32
2022-08-26T16:16:12.114Z,14.25
2022-08-26T16:18:43.414Z,12.98
2022-08-26T16:21:18.901Z,12.27
2022-08-26T16:23:49.518Z,11.82
2022-08-26T16:26:34.057Z,11.88
2022-08-26T16:29:08.758Z,11.10
2022-08-26T16:31:39.929Z,10.50
2022-08-26T16:34:11.028Z,10.63
2022-08-26T16:36:42.019Z,10.85
2022-08-26T16:39:12.245Z,8.85
2022-08-26T16:41:43.304Z,8.98
2022-08-26T16:44:13.553Z,9.63
2022-08-26T16:46:46.710Z,8.88
2022-08-26T16:49:17.276Z,8.90
2022-08-26T16:51:48.057Z,7.45
2022-08-26T16:54:18.274Z,7.10
2022-08-26T16:56:48.925Z,7.95
2022-08-26T16:59:19.207Z,8.32
2022-08-26T17:01:49.914Z,7.93
2022-08-26T17:04:20.927Z,7.95
2022-08-26T17:06:51.947Z,7.35
2022-08-26T17:09:22.952Z,7.07
2022-08-26T17:11:54.307Z,6.57
2022-08-26T17:14:24.562Z,7.03
2022-08-26T17:16:55.508Z,6.63
2022-08-26T17:19:26.426Z,6.78
2022-08-26T17:21:57.099Z,6.55
2022-08-26T17:24:29.387Z,7.20
2022-08-26T17:27:00.096Z,6.63
2022-08-26T17:29:30.450Z,6.78
2022-08-26T17:32:01.323Z,7.20
2022-08-26T17:34:31.991Z,6.50
2022-08-26T17:37:02.282Z,6.30
2022-08-26T17:39:32.675Z,6.55
2022-08-26T17:42:02.538Z,6.25
2022-08-26T17:44:33.296Z,6.80
2022-08-26T17:47:03.335Z,6.97
2022-08-26T17:49:33.822Z,6.88
2022-08-26T17:52:09.611Z,6.65
2022-08-26T17:54:41.938Z,7.35
2022-08-26T17:57:12.087Z,7.20
2022-08-26T17:59:43.379Z,7.50
2022-08-26T18:02:13.555Z,7.32
2022-08-26T18:04:44.058Z,7.70
2022-08-26T18:07:17.361Z,6.85
2022-08-26T18:09:47.884Z,7.32
2022-08-26T18:12:18.059Z,7.00
2022-08-26T18:14:48.538Z,6.60
2022-08-26T18:17:20.305Z,7.18
2022-08-26T18:19:51.146Z,7.97
2022-08-26T18:22:22.550Z,8.07
2022-08-26T18:24:59.084Z,7.45
2022-08-26T18:27:29.634Z,7.28
2022-08-26T18:30:00.418Z,7.95
2022-08-26T18:32:30.642Z,8.52
2022-08-26T18:35:01.161Z,7.45
2022-08-26T18:37:32.081Z,7.60
2022-08-26T18:40:02.713Z,7.38
2022-08-26T18:42:34.430Z,7.60
2022-08-26T18:45:06.819Z,7.07
2022-08-26T18:47:37.728Z,8.77
2022-08-26T18:50:09.679Z,9.40
2022-08-26T18:52:39.927Z,9.45
2022-08-26T18:55:10.967Z,8.80
2022-08-26T18:57:41.133Z,8.98
2022-08-26T19:00:12.531Z,8.45
2022-08-26T19:02:42.693Z,8.93
2022-08-26T19:05:22.403Z,9.32
2022-08-26T19:07:52.500Z,8.73
2022-08-26T19:10:22.996Z,9.38
2022-08-26T19:12:55.379Z,9.02
2022-08-26T19:15:29.401Z,8.73
2022-08-26T19:17:59.994Z,8.38
2022-08-26T19:20:30.502Z,7.97
2022-08-26T19:23:05.663Z,8.52
2022-08-26T19:25:46.906Z,8.90
2022-08-26T19:28:19.499Z,7.93
2022-08-26T19:30:53.259Z,8.55
2022-08-26T19:33:23.911Z,7.95
2022-08-26T19:35:54.578Z,8.73
2022-08-26T19:38:25.257Z,8.35
2022-08-26T19:40:59.593Z,8.13
2022-08-26T19:43:29.692Z,7.78
2022-08-26T19:46:03.002Z,8.48
2022-08-26T19:48:33.046Z,8.05
2022-08-26T19:51:03.585Z,7.95
2022-08-26T19:53:33.675Z,7.90
2022-08-26T19:56:04.347Z,8.02
2022-08-26T19:58:34.538Z,8.00
2022-08-26T20:01:05.754Z,8.75
2022-08-26T20:03:37.227Z,7.80
2022-08-26T20:06:09.659Z,7.78
2022-08-26T20:08:41.908Z,7.85
2022-08-26T20:11:15.811Z,7.72
2022-08-26T20:13:49.606Z,7.85
2022-08-26T20:16:20.189Z,7.13
2022-08-26T20:19:08.801Z,7.70
2022-08-26T20:21:41.027Z,7.03
2022-08-26T20:24:16.798Z,7.40
2022-08-26T20:26:47.355Z,9.10
2022-08-26T20:29:19.431Z,8.57
2022-08-26T20:31:50.541Z,9.23
2022-08-26T20:34:51.778Z,8.75
2022-08-26T20:37:23.026Z,9.13
2022-08-26T20:39:53.124Z,9.48
2022-08-26T20:42:23.595Z,8.93
2022-08-26T20:44:56.357Z,9.70
2022-08-26T20:47:26.870Z,9.25
2022-08-26T20:49:59.390Z,9.27
2022-08-26T20:52:29.895Z,9.63
2022-08-26T20:54:59.958Z,8.98
2022-08-26T20:57:30.512Z,9.90
2022-08-26T21:00:00.579Z,8.85
2022-08-26T21:02:31.009Z,9.50
2022-08-26T21:05:01.996Z,9.85
2022-08-26T21:07:32.594Z,9.88
2022-08-26T21:10:02.623Z,8.35
2022-08-26T21:12:33.703Z,8.43
2022-08-26T21:15:04.514Z,8.60
2022-08-26T21:17:35.862Z,8.95
2022-08-26T21:20:07.003Z,9.23
2022-08-26T21:22:37.420Z,8.80
2022-08-26T21:25:08.043Z,7.65
2022-08-26T21:27:39.192Z,8.07
2022-08-26T21:30:09.852Z,7.50
2022-08-26T21:32:40.214Z,7.15
2022-08-26T21:35:11.090Z,6.72
2022-08-26T21:37:42.075Z,6.35
2022-08-26T21:40:12.774Z,6.10
2022-08-26T21:42:43.229Z,6.75
2022-08-26T21:45:13.887Z,5.93
2022-08-26T21:47:44.660Z,5.28
2022-08-26T21:50:14.891Z,5.90
2022-08-26T21:52:45.347Z,5.38
2022-08-26T21:55:15.379Z,5.45
2022-08-26T21:57:45.959Z,5.63
2022-08-26T22:00:17.483Z,4.55
2022-08-26T22:02:51.346Z,4.82
2022-08-26T22:05:21.351Z,4.95
2022-08-26T22:07:52.814Z,4.78
2022-08-26T22:10:23.340Z,4.95
2022-08-26T22:12:53.806Z,4.93
2022-08-26T22:15:26.913Z,4.43
2022-08-26T22:17:59.843Z,4.55
2022-08-26T22:20:32.401Z,4.63
2022-08-26T22:23:02.936Z,4.72
2022-08-26T22:25:33.531Z,4.65
2022-08-26T22:28:04.441Z,4.22
2022-08-26T22:30:38.666Z,4.80
2022-08-26T22:33:10.591Z,4.55
2022-08-26T22:35:46.005Z,5.35
2022-08-26T22:38:16.728Z,5.65
2022-08-26T22:40:56.421Z,5.63
2022-08-26T22:43:28.740Z,4.90
2022-08-26T22:45:59.005Z,5.22
2022-08-26T22:48:29.595Z,4.70
2022-08-26T22:51:00.335Z,4.70
2022-08-26T22:53:31.026Z,5.78
2022-08-26T22:56:06.838Z,4.88
2022-08-26T22:58:37.682Z,4.93
2022-08-26T23:01:08.938Z,4.50
2022-08-26T23:03:39.980Z,5.45
2022-08-26T23:06:11.689Z,4.70
2022-08-26T23:08:43.164Z,4.57
2022-08-26T23:11:14.692Z,4.80
2022-08-26T23:13:45.386Z,5.88
2022-08-26T23:16:15.518Z,5.13
2022-08-26T23:18:46.361Z,5.03
2022-08-26T23:21:16.487Z,6.13
2022-08-26T23:23:47.119Z,5.55
2022-08-26T23:26:17.890Z,5.75
2022-08-26T23:28:48.570Z,4.95
2022-08-26T23:31:18.593Z,5.70
2022-08-26T23:34:07.490Z,7.30
2022-08-26T23:36:38.160Z,5.30
2022-08-26T23:39:08.689Z,5.88
2022-08-26T23:41:39.565Z,5.45
2022-08-26T23:44:10.077Z,5.82
2022-08-26T23:46:40.627Z,8.10
2022-08-26T23:49:11.228Z,6.00
2022-08-26T23:51:59.516Z,6.18
2022-08-26T23:54:30.022Z,5.68
2022-08-26T23:57:00.431Z,5.80
2022-08-26T23:59:31.049Z,5.80
